Time;durP1;ratioP1;P1;durP2;ratioP2;P2;SDS_P1;SDS_P2;PMS_P1;PMS_P2;Temp;Humidity;BMP_temperature;BMP_pressure;BME280_temperature;BME280_humidity;BME280_pressure;Samples;Min_cycle;Max_cycle;Signal;HPM_P1;HPM_P2
2021/07/06 00:02:18;;;;;;;2.38;1.42;;;;;;;16.45;61.33;99104.78;5047927;28;20535;-48
2021/07/06 00:04:48;;;;;;;3.40;1.98;;;;;;;16.35;61.43;99104.97;5049998;28;20825;-45
2021/07/06 00:07:18;;;;;;;4.88;1.52;;;;;;;16.35;61.45;99111.34;5049626;28;20045;-45
2021/07/06 00:09:46;;;;;;;4.32;1.65;;;;;;;16.27;61.54;99098.72;5047423;28;20054;-51
2021/07/06 00:12:13;;;;;;;1.88;1.40;;;;;;;16.16;62.11;99100.88;5047736;28;20095;-45
2021/07/06 00:14:40;;;;;;;2.50;1.33;;;;;;;16.12;62.33;99097.34;5048458;28;20051;-46
2021/07/06 00:17:07;;;;;;;3.05;1.55;;;;;;;16.08;62.49;99095.81;5048311;28;20140;-50
2021/07/06 00:19:37;;;;;;;2.38;1.15;;;;;;;16.08;62.60;99085.44;5047897;28;20144;-44
2021/07/06 00:22:04;;;;;;;4.22;2.20;;;;;;;16.09;62.48;99086.22;5046034;28;20033;-44
2021/07/06 00:24:32;;;;;;;6.18;1.75;;;;;;;16.08;62.65;99095.81;5048369;28;20052;-45
2021/07/06 00:26:58;;;;;;;2.65;1.50;;;;;;;16.12;62.48;99088.19;5046875;28;20053;-42
2021/07/06 00:29:26;;;;;;;4.30;1.50;;;;;;;16.06;62.63;99085.06;5048411;28;20113;-49
2021/07/06 00:31:52;;;;;;;1.65;1.48;;;;;;;16.01;62.84;99085.56;5048641;28;20104;-44
2021/07/06 00:34:19;;;;;;;3.88;1.55;;;;;;;16.05;62.93;99082.69;5047650;28;20057;-52
2021/07/06 00:36:46;;;;;;;4.18;1.70;;;;;;;16.12;62.78;99083.41;5049788;28;20402;-44
2021/07/06 00:39:13;;;;;;;1.40;1.27;;;;;;;16.09;62.85;99086.22;5046171;28;20057;-43
2021/07/06 00:41:40;;;;;;;3.30;1.63;;;;;;;15.98;63.16;99080.81;5049052;28;20045;-50
2021/07/06 00:44:18;;;;;;;2.47;1.98;;;;;;;15.90;63.53;99079.34;5047542;28;20059;-53
2021/07/06 00:46:45;;;;;;;3.83;1.40;;;;;;;15.95;63.29;99075.28;5031026;28;20057;-43
2021/07/06 00:49:14;;;;;;;5.53;2.42;;;;;;;15.95;63.36;99078.84;5056744;28;20402;-49
2021/07/06 00:51:41;;;;;;;1.83;1.63;;;;;;;16.01;63.30;99074.38;5048050;28;20064;-43
2021/07/06 00:54:10;;;;;;;2.72;2.10;;;;;;;15.90;63.51;99067.38;5031761;28;20053;-49
2021/07/06 00:56:44;;;;;;;2.22;1.40;;;;;;;15.82;63.78;99058.31;5048252;28;20413;-48
2021/07/06 00:59:13;;;;;;;2.72;1.30;;;;;;;15.72;64.36;99056.47;5030830;28;20060;-49
2021/07/06 01:01:39;;;;;;;2.28;1.60;;;;;;;15.68;64.30;99050.94;5028568;28;20041;-46
2021/07/06 01:04:07;;;;;;;7.20;1.77;;;;;;;15.76;64.44;99051.63;5046214;28;20037;-49
2021/07/06 01:06:34;;;;;;;1.90;1.65;;;;;;;15.78;64.21;99054.78;5031207;28;20056;-43
2021/07/06 01:09:01;;;;;;;5.28;1.70;;;;;;;15.72;64.53;99050.91;5049887;28;20120;-43
2021/07/06 01:11:28;;;;;;;4.80;1.63;;;;;;;15.81;64.16;99048.34;5054925;28;20049;-47
2021/07/06 01:13:57;;;;;;;4.20;1.92;;;;;;;15.83;64.26;99048.75;5049321;28;20107;-46
2021/07/06 01:16:24;;;;;;;8.30;1.60;;;;;;;15.83;64.10;99048.75;5014801;28;20109;-46
2021/07/06 01:18:51;;;;;;;6.10;1.80;;;;;;;15.81;64.23;99040.00;5031113;28;20450;-54
2021/07/06 01:21:20;;;;;;;6.60;2.28;;;;;;;15.83;64.09;99045.97;5030164;28;20159;-43
2021/07/06 01:23:47;;;;;;;8.77;3.22;;;;;;;15.82;64.09;99045.16;5048679;28;20052;-46
2021/07/06 01:26:14;;;;;;;3.35;1.95;;;;;;;15.82;64.03;99038.78;5048081;28;20045;-42
2021/07/06 01:28:42;;;;;;;2.17;1.33;;;;;;;15.80;64.15;99038.44;5047540;28;20044;-46
2021/07/06 01:31:08;;;;;;;1.83;1.40;;;;;;;15.77;64.32;99031.69;5047304;28;20053;-45
2021/07/06 01:33:36;;;;;;;6.75;2.00;;;;;;;15.65;64.71;99029.47;5046179;28;20767;-43
2021/07/06 01:36:06;;;;;;;5.05;1.83;;;;;;;15.60;64.85;99026.34;5045973;28;21467;-51
2021/07/06 01:38:35;;;;;;;3.50;1.70;;;;;;;15.64;64.92;99027.09;5048080;28;20059;-44
2021/07/06 01:41:04;;;;;;;2.03;1.48;;;;;;;15.68;64.78;99033.41;5045892;28;20111;-49
2021/07/06 01:43:32;;;;;;;4.95;2.47;;;;;;;15.68;64.84;99022.25;5046461;28;20626;-48
2021/07/06 01:45:59;;;;;;;1.85;1.63;;;;;;;15.57;65.23;99018.81;5046326;28;20049;-47
2021/07/06 01:48:26;;;;;;;2.45;1.85;;;;;;;15.51;65.33;99024.09;5048462;28;20053;-50
2021/07/06 01:50:58;;;;;;;2.28;1.70;;;;;;;15.47;65.53;99025.34;5046657;28;20057;-48
2021/07/06 01:53:26;;;;;;;3.55;1.83;;;;;;;15.36;65.84;99024.66;5030173;28;20111;-42
2021/07/06 01:55:54;;;;;;;3.60;1.95;;;;;;;15.28;66.40;99032.34;5048700;28;20056;-46
2021/07/06 01:58:25;;;;;;;4.05;1.60;;;;;;;15.30;66.41;99023.56;5046343;28;20151;-52
2021/07/06 02:00:58;;;;;;;2.92;1.60;;;;;;;15.27;66.67;99028.75;5045997;28;20975;-49
2021/07/06 02:03:26;;;;;;;4.50;2.40;;;;;;;15.34;66.40;99018.72;5030297;28;20049;-44
2021/07/06 02:05:58;;;;;;;4.75;1.92;;;;;;;15.35;66.40;99020.31;5045515;28;20513;-50
2021/07/06 02:08:26;;;;;;;3.40;2.03;;;;;;;15.31;66.39;99028.72;5045400;28;20065;-45
2021/07/06 02:10:55;;;;;;;4.53;2.30;;;;;;;15.30;66.46;99018.78;5047223;28;20489;-48
2021/07/06 02:13:24;;;;;;;4.40;2.40;;;;;;;15.36;66.52;99028.25;5046783;28;20106;-44
2021/07/06 02:15:54;;;;;;;3.47;2.17;;;;;;;15.33;66.35;99034.66;5046196;28;20364;-52
2021/07/06 02:18:23;;;;;;;2.30;1.80;;;;;;;15.29;66.71;99033.94;5028480;28;20111;-44
2021/07/06 02:20:52;;;;;;;5.70;2.45;;;;;;;15.24;66.65;99029.63;5046219;28;20044;-45
2021/07/06 02:23:19;;;;;;;3.28;1.67;;;;;;;15.16;66.81;99028.13;5047105;28;20178;-43
2021/07/06 02:25:47;;;;;;;2.80;1.60;;;;;;;15.14;67.08;99027.72;5046420;28;20040;-48
2021/07/06 02:28:14;;;;;;;3.35;2.08;;;;;;;15.18;67.08;99034.06;5046186;28;20045;-46
2021/07/06 02:30:41;;;;;;;3.17;1.73;;;;;;;15.16;67.22;99030.91;5046543;28;20053;-42
2021/07/06 02:33:08;;;;;;;5.00;2.13;;;;;;;15.13;67.06;99040.09;5046548;28;20533;-42
2021/07/06 02:35:35;;;;;;;2.20;2.00;;;;;;;15.08;67.29;99034.19;5047430;28;20037;-46
2021/07/06 02:38:03;;;;;;;4.38;2.13;;;;;;;15.09;67.29;99028.19;5047643;28;20143;-43
2021/07/06 02:40:30;;;;;;;4.32;2.45;;;;;;;15.09;67.29;99024.63;5047347;28;20059;-46
2021/07/06 02:42:58;;;;;;;4.30;2.30;;;;;;;15.03;67.28;99023.50;5045548;28;20504;-43
2021/07/06 02:45:26;;;;;;;6.70;2.80;;;;;;;14.98;67.67;99021.97;5044775;28;20147;-45
2021/07/06 02:47:53;;;;;;;6.10;2.10;;;;;;;14.99;67.60;99017.97;5045765;28;20063;-49
2021/07/06 02:50:22;;;;;;;5.28;2.35;;;;;;;15.02;67.35;99019.94;5047458;28;20076;-43
2021/07/06 02:52:50;;;;;;;3.65;1.90;;;;;;;15.03;67.74;99012.38;5044612;28;20820;-41
2021/07/06 02:55:21;;;;;;;3.15;2.20;;;;;;;14.96;67.74;99013.22;5047602;28;20048;-42
2021/07/06 02:57:51;;;;;;;3.30;2.15;;;;;;;14.89;67.72;99013.31;5049120;28;20160;-51
2021/07/06 03:00:25;;;;;;;3.90;1.90;;;;;;;14.85;68.22;99015.34;5050624;28;20045;-46
2021/07/06 03:02:58;;;;;;;3.05;2.08;;;;;;;14.76;68.52;99003.91;5050140;28;20383;-41
2021/07/06 03:05:28;;;;;;;2.25;1.70;;;;;;;14.76;68.58;99009.50;5049802;28;20059;-43
2021/07/06 03:07:56;;;;;;;6.82;2.05;;;;;;;14.78;68.23;99009.84;5057570;28;20073;-41
2021/07/06 03:10:28;;;;;;;3.22;1.90;;;;;;;14.71;68.78;99000.78;5049703;28;20409;-42
2021/07/06 03:12:56;;;;;;;4.05;1.83;;;;;;;14.72;68.55;99005.16;5051892;28;20053;-45
2021/07/06 03:15:25;;;;;;;3.10;1.98;;;;;;;14.72;68.87;98997.59;5049865;28;20052;-47
2021/07/06 03:17:52;;;;;;;5.72;1.80;;;;;;;14.66;68.88;98998.47;5049959;28;20049;-47
2021/07/06 03:20:22;;;;;;;3.25;2.88;;;;;;;14.66;69.07;99002.06;5049056;28;20055;-44
2021/07/06 03:22:50;;;;;;;5.75;2.13;;;;;;;14.73;68.89;98998.38;5033717;28;20053;-43
2021/07/06 03:25:20;;;;;;;3.35;1.73;;;;;;;14.72;68.96;99000.38;5049835;28;20049;-46
2021/07/06 03:27:48;;;;;;;2.15;1.77;;;;;;;14.71;68.88;99003.59;5050180;28;20153;-45
2021/07/06 03:30:19;;;;;;;3.72;1.85;;;;;;;14.59;69.58;99007.66;5048891;28;22142;-51
2021/07/06 03:32:47;;;;;;;3.30;1.92;;;;;;;14.49;69.55;99000.22;5048304;28;20774;-43
2021/07/06 03:35:15;;;;;;;3.97;1.65;;;;;;;14.42;69.97;99009.47;5032286;28;20787;-44
2021/07/06 03:37:43;;;;;;;4.55;4.10;;;;;;;14.40;70.16;99011.06;5050408;28;20048;-43
2021/07/06 03:40:12;;;;;;;3.58;2.10;;;;;;;14.38;70.15;99013.47;5048494;28;20045;-42
2021/07/06 03:42:40;;;;;;;6.10;2.55;;;;;;;14.36;70.33;99007.53;5051076;28;20048;-48
2021/07/06 03:45:13;;;;;;;6.22;2.53;;;;;;;14.31;70.49;99019.91;5049584;28;20465;-42
2021/07/06 03:47:40;;;;;;;4.13;2.20;;;;;;;14.30;70.74;99009.94;5049074;28;20130;-44
2021/07/06 03:50:11;;;;;;;3.17;2.40;;;;;;;14.26;70.86;99022.31;5049952;28;20106;-50
2021/07/06 03:52:38;;;;;;;2.85;2.25;;;;;;;14.25;70.94;99021.50;5048738;28;20041;-46
2021/07/06 03:55:06;;;;;;;5.53;2.47;;;;;;;14.28;70.57;99019.91;5048576;28;20137;-43
2021/07/06 03:57:33;;;;;;;5.55;2.58;;;;;;;14.25;70.95;99015.16;5049384;28;20053;-44
2021/07/06 04:00:03;;;;;;;3.85;3.42;;;;;;;14.24;71.20;99013.59;5049326;28;20481;-45
2021/07/06 04:02:33;;;;;;;4.07;2.25;;;;;;;14.24;70.97;99014.38;5050621;28;20044;-43
2021/07/06 04:05:02;;;;;;;2.63;2.20;;;;;;;14.31;71.04;99019.06;5050737;28;20064;-43
2021/07/06 04:07:29;;;;;;;5.70;2.70;;;;;;;14.30;71.09;99020.25;5049651;28;20071;-44
2021/07/06 04:09:56;;;;;;;4.50;2.80;;;;;;;14.29;71.20;99024.28;5048111;28;20750;-52
2021/07/06 04:12:23;;;;;;;3.20;2.63;;;;;;;14.24;71.25;99022.72;5049018;28;20060;-41
2021/07/06 04:14:49;;;;;;;5.25;2.88;;;;;;;14.21;71.31;99031.09;5048972;28;20048;-46
2021/07/06 04:17:16;;;;;;;5.50;2.90;;;;;;;14.15;71.72;99024.38;5048730;28;20076;-43
2021/07/06 04:19:43;;;;;;;3.92;2.88;;;;;;;14.17;71.58;99021.97;5050271;28;21335;-52
2021/07/06 04:22:10;;;;;;;5.57;3.15;;;;;;;14.12;71.94;99019.63;5047366;28;20401;-45
2021/07/06 04:24:37;;;;;;;5.07;3.03;;;;;;;14.12;71.98;99027.97;5050244;28;20128;-50
2021/07/06 04:27:04;;;;;;;3.58;2.97;;;;;;;14.10;72.06;99019.25;5048981;28;20044;-42
2021/07/06 04:29:31;;;;;;;6.88;4.43;;;;;;;14.13;72.27;99024.00;5049562;28;20078;-44
2021/07/06 04:31:58;;;;;;;7.82;3.75;;;;;;;14.13;72.34;99024.81;5046756;28;21282;-49
2021/07/06 04:34:28;;;;;;;7.97;4.03;;;;;;;14.11;72.38;99020.84;5047647;28;20063;-45
2021/07/06 04:36:55;;;;;;;4.80;3.08;;;;;;;14.13;72.29;99024.00;5049653;28;20052;-41
2021/07/06 04:39:22;;;;;;;6.90;3.83;;;;;;;14.15;72.34;99021.59;5047723;28;20144;-44
2021/07/06 04:41:49;;;;;;;4.68;3.28;;;;;;;14.09;72.75;99014.88;5050313;28;20509;-50
2021/07/06 04:44:15;;;;;;;5.30;2.83;;;;;;;14.08;72.84;99022.47;5048596;28;20055;-51
2021/07/06 04:46:42;;;;;;;3.75;3.28;;;;;;;14.14;72.62;99020.81;5049452;28;20513;-42
2021/07/06 04:49:10;;;;;;;7.05;3.22;;;;;;;14.17;72.85;99019.19;5048627;28;20057;-49
2021/07/06 04:51:38;;;;;;;3.80;3.05;;;;;;;14.17;72.74;99022.78;5047941;28;20090;-45
2021/07/06 04:54:05;;;;;;;5.40;3.15;;;;;;;14.21;72.73;99022.75;5046642;28;20040;-45
2021/07/06 04:56:32;;;;;;;4.53;2.88;;;;;;;14.22;72.74;99021.53;5047819;28;20059;-45
2021/07/06 04:58:58;;;;;;;3.22;2.33;;;;;;;14.27;72.88;99023.91;5052116;28;20048;-43
2021/07/06 05:01:25;;;;;;;4.43;2.83;;;;;;;14.22;72.86;99015.97;5047209;28;20049;-42
2021/07/06 05:03:54;;;;;;;5.68;2.78;;;;;;;14.26;73.07;99016.72;5031533;28;20563;-46
2021/07/06 05:06:21;;;;;;;3.38;2.80;;;;;;;14.32;72.72;99015.13;5047640;28;20044;-45
2021/07/06 05:08:48;;;;;;;6.80;3.15;;;;;;;14.30;73.25;99011.91;5049621;28;20571;-50
2021/07/06 05:11:16;;;;;;;8.77;2.72;;;;;;;14.35;72.97;99011.53;5048049;28;20063;-42
2021/07/06 05:13:43;;;;;;;3.92;2.45;;;;;;;14.26;73.35;99016.72;5048069;28;20052;-42
2021/07/06 05:16:10;;;;;;;4.57;2.78;;;;;;;14.29;73.42;99027.06;5046826;28;20048;-48
2021/07/06 05:18:37;;;;;;;4.55;2.60;;;;;;;14.26;73.43;99016.72;5047688;28;20056;-53
2021/07/06 05:21:04;;;;;;;4.22;2.80;;;;;;;14.28;73.28;99017.09;5047086;28;20412;-43
2021/07/06 05:23:31;;;;;;;3.38;3.00;;;;;;;14.29;73.61;99013.13;5048417;28;20054;-43
2021/07/06 05:25:59;;;;;;;5.75;3.08;;;;;;;14.33;73.56;99014.69;5045699;28;20059;-54
2021/07/06 05:28:26;;;;;;;4.55;2.40;;;;;;;14.32;73.79;99010.31;5046461;28;20083;-45
2021/07/06 05:30:52;;;;;;;4.78;2.70;;;;;;;14.36;73.83;99015.88;5028861;28;20596;-50
2021/07/06 05:33:19;;;;;;;5.07;3.05;;;;;;;14.41;73.63;99013.44;5046271;28;20496;-51
2021/07/06 05:35:47;;;;;;;6.20;2.42;;;;;;;14.44;73.81;99017.38;5048246;28;20057;-45
2021/07/06 05:38:14;;;;;;;4.57;3.90;;;;;;;14.46;73.75;99010.19;5047754;28;20413;-44
2021/07/06 05:41:02;;;;;;;5.80;3.55;;;;;;;14.53;73.68;99017.69;5046268;28;20052;-45
2021/07/06 05:43:29;;;;;;;4.53;2.90;;;;;;;14.61;73.58;99024.78;5048300;28;20714;-51
2021/07/06 05:45:56;;;;;;;4.85;2.38;;;;;;;14.61;73.63;99014.41;5046118;28;20045;-43
2021/07/06 05:48:24;;;;;;;2.88;2.60;;;;;;;14.60;73.68;99015.63;5047008;28;20060;-48
2021/07/06 05:50:51;;;;;;;6.47;2.75;;;;;;;14.60;73.68;99017.63;5045233;28;20071;-48
2021/07/06 05:53:17;;;;;;;3.72;2.78;;;;;;;14.66;73.46;99027.13;5029348;28;20059;-53
2021/07/06 05:55:44;;;;;;;6.32;2.55;;;;;;;14.66;73.66;99024.34;5045312;28;20059;-43
2021/07/06 05:58:12;;;;;;;5.45;2.67;;;;;;;14.70;73.56;99016.72;5046768;28;20512;-42
2021/07/06 06:00:39;;;;;;;3.70;2.83;;;;;;;14.71;73.86;99015.53;5045474;28;20099;-51
2021/07/06 06:03:12;;;;;;;9.57;4.95;;;;;;;14.79;73.80;99027.38;5045738;28;20052;-43
2021/07/06 06:05:40;;;;;;;5.13;2.63;;;;;;;14.85;73.58;99020.16;5047897;28;20049;-42
2021/07/06 06:08:09;;;;;;;3.53;1.85;;;;;;;14.88;73.55;99022.88;5043716;28;20072;-46
2021/07/06 06:10:36;;;;;;;3.72;1.95;;;;;;;14.88;73.47;99024.88;5047886;28;20059;-49
2021/07/06 06:13:03;;;;;;;4.78;1.98;;;;;;;14.90;73.28;99023.25;5046386;28;20049;-45
2021/07/06 06:15:31;;;;;;;3.53;1.75;;;;;;;14.92;73.25;99028.41;5048164;28;20048;-45
2021/07/06 06:17:59;;;;;;;3.60;1.52;;;;;;;14.91;73.21;99029.59;5047467;28;20123;-46
2021/07/06 06:20:26;;;;;;;2.78;1.67;;;;;;;14.93;73.39;99030.78;5044483;28;20048;-43
2021/07/06 06:22:52;;;;;;;5.70;1.85;;;;;;;14.97;73.13;99033.53;5047577;28;20144;-49
2021/07/06 06:25:19;;;;;;;3.22;1.40;;;;;;;15.00;73.10;99021.56;5045141;28;20663;-45
2021/07/06 06:27:47;;;;;;;4.28;1.83;;;;;;;15.00;73.01;99027.91;5039582;28;20049;-49
2021/07/06 06:30:15;;;;;;;2.28;1.75;;;;;;;15.03;73.17;99032.66;5039237;28;20132;-51
2021/07/06 06:32:42;;;;;;;7.60;1.40;;;;;;;15.08;72.87;99029.41;5039916;28;20135;-53
2021/07/06 06:35:10;;;;;;;5.82;2.92;;;;;;;15.09;72.76;99033.75;5043608;28;20040;-48
2021/07/06 06:37:36;;;;;;;2.83;1.15;;;;;;;15.12;72.63;99040.50;5045185;28;20052;-42
2021/07/06 06:40:06;;;;;;;4.90;1.45;;;;;;;15.16;72.19;99044.84;5040680;28;20489;-52
2021/07/06 06:42:33;;;;;;;4.60;1.45;;;;;;;15.19;72.34;99040.44;5028013;28;20060;-48
2021/07/06 06:45:01;;;;;;;3.10;1.25;;;;;;;15.30;71.98;99037.50;5027479;28;20052;-47
2021/07/06 06:47:28;;;;;;;3.58;1.42;;;;;;;15.38;71.61;99031.41;5043502;28;20061;-50
2021/07/06 06:49:54;;;;;;;2.42;1.27;;;;;;;15.42;71.30;99036.94;5038084;28;20057;-42
2021/07/06 06:52:22;;;;;;;2.22;1.75;;;;;;;15.44;71.09;99029.72;5039971;28;20477;-44
2021/07/06 06:54:48;;;;;;;3.25;1.50;;;;;;;15.56;70.93;99036.78;5044430;28;20059;-47
2021/07/06 06:57:15;;;;;;;2.67;2.20;;;;;;;15.73;70.76;99039.31;5046969;28;20135;-46
2021/07/06 06:59:42;;;;;;;1.92;1.08;;;;;;;15.82;70.46;99044.38;5024538;28;20049;-46
2021/07/06 07:02:22;;;;;;;2.88;1.13;;;;;;;16.03;70.15;99032.09;5039570;28;20057;-51
2021/07/06 07:04:52;;;;;;;2.58;1.63;;;;;;;16.25;69.54;99022.94;5041610;28;20045;-53
2021/07/06 07:07:20;;;;;;;6.28;1.23;;;;;;;16.37;69.17;99035.50;5048238;28;20051;-51
2021/07/06 07:09:48;;;;;;;1.48;1.20;;;;;;;16.40;68.70;99038.25;5038120;28;20051;-43
2021/07/06 07:12:16;;;;;;;4.78;0.90;;;;;;;16.44;68.54;99029.81;5043449;28;20060;-44
2021/07/06 07:14:45;;;;;;;0.90;0.70;;;;;;;16.52;68.28;99036.81;5040238;28;20048;-47
2021/07/06 07:17:12;;;;;;;0.80;0.80;;;;;;;16.50;68.10;99032.88;5043594;28;20551;-45
2021/07/06 07:19:40;;;;;;;1.55;0.88;;;;;;;16.60;68.14;99043.88;5041009;28;20069;-48
2021/07/06 07:22:07;;;;;;;1.88;0.88;;;;;;;16.61;67.88;99044.69;5038302;28;20426;-53
2021/07/06 07:24:36;;;;;;;2.17;0.60;;;;;;;16.58;67.56;99040.72;5045979;28;20056;-52
2021/07/06 07:27:04;;;;;;;1.00;0.40;;;;;;;16.51;67.34;99051.22;5044865;28;20167;-49
2021/07/06 07:29:32;;;;;;;0.82;0.50;;;;;;;16.40;67.50;99046.63;5042537;28;20056;-53
2021/07/06 07:31:59;;;;;;;0.70;0.45;;;;;;;16.41;67.81;99050.97;5042980;28;20426;-45
2021/07/06 07:34:27;;;;;;;0.60;0.40;;;;;;;16.41;67.60;99039.78;5044182;28;20065;-44
2021/07/06 07:36:53;;;;;;;1.63;0.30;;;;;;;16.25;67.78;99050.88;5046254;28;20045;-45
2021/07/06 07:39:20;;;;;;;0.77;0.60;;;;;;;16.34;67.76;99047.50;5038394;28;20049;-47
2021/07/06 07:41:47;;;;;;;1.25;0.40;;;;;;;16.51;67.74;99042.84;5039118;28;20057;-52
2021/07/06 07:44:14;;;;;;;0.73;0.30;;;;;;;16.63;67.45;99053.41;5039842;28;20044;-50
2021/07/06 07:46:42;;;;;;;0.70;0.35;;;;;;;16.58;67.34;99051.91;5041821;28;20056;-45
2021/07/06 07:49:10;;;;;;;2.17;0.50;;;;;;;16.58;67.65;99065.09;5041635;28;20476;-44
2021/07/06 07:51:37;;;;;;;0.30;0.20;;;;;;;16.79;68.18;99057.13;5042863;28;20063;-44
2021/07/06 07:54:03;;;;;;;1.92;0.60;;;;;;;17.02;68.05;99062.66;5042355;28;20055;-45
2021/07/06 07:56:30;;;;;;;2.83;0.40;;;;;;;17.05;67.56;99061.78;5043496;28;20059;-47
2021/07/06 07:58:57;;;;;;;3.03;0.68;;;;;;;16.95;67.45;99059.19;5024866;28;20588;-45
2021/07/06 08:01:24;;;;;;;1.75;0.93;;;;;;;16.89;67.31;99058.91;5036799;28;20059;-48
2021/07/06 08:03:51;;;;;;;2.92;1.73;;;;;;;16.86;67.13;99068.19;5043279;28;20036;-47
2021/07/06 08:06:17;;;;;;;1.85;0.40;;;;;;;16.94;67.17;99072.38;5041690;28;20060;-43
2021/07/06 08:08:44;;;;;;;2.67;1.00;;;;;;;17.13;67.08;99073.63;5040341;28;20067;-45
2021/07/06 08:11:11;;;;;;;2.25;0.50;;;;;;;17.35;66.86;99065.59;5038689;28;20056;-50
2021/07/06 08:13:39;;;;;;;2.58;0.50;;;;;;;17.72;66.73;99064.44;5039530;28;20052;-54
2021/07/06 08:16:06;;;;;;;0.77;0.73;;;;;;;17.97;66.36;99061.88;5042099;28;20099;-50
2021/07/06 08:18:33;;;;;;;2.95;0.60;;;;;;;17.99;65.79;99071.41;5042230;28;20131;-43
2021/07/06 08:21:00;;;;;;;1.05;0.60;;;;;;;18.01;65.54;99068.16;5041368;28;20057;-47
2021/07/06 08:23:27;;;;;;;2.05;0.57;;;;;;;18.06;65.11;99062.03;5038846;28;20045;-45
2021/07/06 08:25:54;;;;;;;2.30;0.68;;;;;;;18.12;65.00;99065.91;5018063;28;20614;-49
2021/07/06 08:28:22;;;;;;;2.85;0.65;;;;;;;18.08;64.63;99059.59;5039975;28;20052;-51
2021/07/06 08:30:50;;;;;;;5.55;0.80;;;;;;;18.15;64.58;99065.03;5038967;28;20466;-49
2021/07/06 08:33:17;;;;;;;1.67;0.73;;;;;;;18.23;64.53;99066.44;5046701;28;20218;-54
2021/07/06 08:35:45;;;;;;;0.63;0.40;;;;;;;18.55;64.30;99052.44;5042207;28;20910;-46
2021/07/06 08:38:16;;;;;;;1.00;0.30;;;;;;;19.30;63.65;99051.19;5040787;28;20044;-43
2021/07/06 08:40:49;;;;;;;0.93;0.40;;;;;;;19.64;62.91;99059.03;5039339;28;20051;-44
2021/07/06 08:43:17;;;;;;;1.65;0.60;;;;;;;19.71;62.40;99056.78;5038410;28;20049;-50
2021/07/06 08:45:44;;;;;;;1.42;0.22;;;;;;;19.79;61.54;99060.16;5043259;28;20457;-43
2021/07/06 08:48:12;;;;;;;3.97;0.25;;;;;;;19.88;60.77;99061.06;5046651;28;20404;-47
2021/07/06 08:50:39;;;;;;;0.40;0.30;;;;;;;19.95;60.28;99063.66;5037527;28;20064;-45
2021/07/06 08:53:06;;;;;;;0.32;0.32;;;;;;;19.83;59.88;99067.25;5038661;28;20047;-42
2021/07/06 08:55:33;;;;;;;1.63;0.40;;;;;;;19.56;59.36;99063.28;5038744;28;20053;-47
2021/07/06 08:58:00;;;;;;;2.25;0.40;;;;;;;19.25;59.46;99069.34;5022735;28;21039;-47
2021/07/06 09:00:31;;;;;;;2.58;0.60;;;;;;;18.91;60.05;99062.69;5036867;28;20137;-53
2021/07/06 09:03:05;;;;;;;6.30;1.10;;;;;;;18.72;60.28;99062.38;5040683;28;20087;-44
2021/07/06 09:05:33;;;;;;;0.50;0.22;;;;;;;18.81;60.61;99059.75;5049135;28;20053;-52
2021/07/06 09:08:00;;;;;;;0.82;0.40;;;;;;;18.86;60.67;99055.63;5042574;28;20037;-45
2021/07/06 09:10:39;;;;;;;4.78;1.48;;;;;;;18.81;60.41;99059.75;5042287;28;20064;-43
2021/07/06 09:13:32;;;;;;;0.57;0.47;;;;;;;18.79;60.66;99058.63;5040264;28;20476;-47
2021/07/06 09:16:01;;;;;;;1.40;0.40;;;;;;;18.82;60.60;99061.31;5035269;28;20068;-52
2021/07/06 09:18:30;;;;;;;0.63;0.50;;;;;;;18.85;60.70;99065.25;5034915;28;20056;-46
2021/07/06 09:21:01;;;;;;;0.30;0.30;;;;;;;18.68;60.68;99067.31;5034156;28;20061;-49
2021/07/06 09:23:34;;;;;;;0.10;0.10;;;;;;;18.63;60.67;99069.88;5035489;28;20087;-45
2021/07/06 09:26:18;;;;;;;0.50;0.30;;;;;;;18.63;61.08;99065.06;5041096;28;20421;-43
2021/07/06 09:28:54;;;;;;;0.52;0.52;;;;;;;18.71;60.71;99068.44;5039556;28;20100;-48
2021/07/06 09:31:31;;;;;;;2.60;0.10;;;;;;;18.66;60.80;99064.16;5039621;28;20048;-45
2021/07/06 09:34:07;;;;;;;1.10;0.52;;;;;;;18.74;60.71;99071.13;5039864;28;20513;-49
2021/07/06 09:36:40;;;;;;;0.20;0.20;;;;;;;18.75;60.99;99067.13;5036828;28;20063;-49
2021/07/06 09:39:13;;;;;;;0.10;0.10;;;;;;;18.78;61.23;99077.47;5039837;28;20061;-46
2021/07/06 09:41:45;;;;;;;1.35;0.10;;;;;;;18.82;61.09;99072.53;5038386;28;20561;-53
2021/07/06 09:44:17;;;;;;;2.85;0.10;;;;;;;18.84;61.09;99070.09;5036527;28;20789;-47
2021/07/06 09:46:50;;;;;;;0.67;0.10;;;;;;;19.01;61.09;99070.81;5040523;28;20155;-44
2021/07/06 09:49:20;;;;;;;0.75;0.10;;;;;;;19.18;60.94;99071.56;5038306;28;20106;-44
2021/07/06 09:51:56;;;;;;;2.97;0.20;;;;;;;19.15;60.68;99066.84;5036378;28;21941;-54
2021/07/06 09:54:25;;;;;;;3.30;0.43;;;;;;;19.11;60.61;99072.56;5038968;28;20075;-51
2021/07/06 09:57:01;;;;;;;0.85;0.30;;;;;;;19.02;60.70;99074.41;5044766;28;20453;-43
2021/07/06 09:59:28;;;;;;;0.57;0.10;;;;;;;18.99;60.48;99070.47;5037355;28;20063;-48
2021/07/06 10:01:59;;;;;;;0.10;0.10;;;;;;;18.93;60.65;99079.91;5035553;28;20063;-44
2021/07/06 10:04:26;;;;;;;2.85;0.22;;;;;;;18.94;60.52;99061.81;5035902;28;20043;-45
2021/07/06 10:06:55;;;;;;;1.23;0.20;;;;;;;18.95;60.73;99074.63;5044937;28;20156;-44
2021/07/06 10:09:23;;;;;;;0.63;0.22;;;;;;;18.98;60.97;99073.75;5039846;28;20063;-45
2021/07/06 10:11:52;;;;;;;0.30;0.13;;;;;;;18.96;60.98;99067.75;5036222;28;20049;-42
2021/07/06 10:14:20;;;;;;;0.20;0.10;;;;;;;18.88;61.05;99069.97;5038108;28;20119;-43
2021/07/06 10:16:47;;;;;;;2.45;0.20;;;;;;;18.91;61.33;99079.53;5019761;28;20828;-53
2021/07/06 10:19:15;;;;;;;0.22;0.10;;;;;;;18.81;61.56;99078.59;5037934;28;20061;-55
2021/07/06 10:21:42;;;;;;;0.22;0.10;;;;;;;18.80;61.35;99091.03;5038226;28;20053;-48
2021/07/06 10:24:08;;;;;;;0.08;0.08;;;;;;;18.72;61.33;99082.00;5040784;28;20059;-43
2021/07/06 10:26:39;;;;;;;0.50;0.10;;;;;;;18.61;61.68;99089.91;5041230;28;20056;-44
2021/07/06 10:29:07;;;;;;;;;;;;;;;18.47;62.07;99090.28;5040953;28;20052;-48
2021/07/06 10:31:42;;;;;;;1.55;0.10;;;;;;;18.42;62.29;99087.97;5040331;28;19929;-48
2021/07/06 10:34:20;;;;;;;0.10;0.10;;;;;;;18.40;62.56;99093.22;5022294;28;20056;-45
2021/07/06 10:36:47;;;;;;;0.50;0.20;;;;;;;18.46;62.51;99097.06;5041667;28;20064;-47
2021/07/06 10:39:15;;;;;;;0.75;0.28;;;;;;;18.40;62.79;99092.44;5041668;28;20378;-43
2021/07/06 10:41:43;;;;;;;1.35;0.20;;;;;;;18.40;63.17;99101.63;5037385;28;20071;-45
2021/07/06 10:44:09;;;;;;;0.52;0.17;;;;;;;18.43;63.09;99100.75;5039654;28;20494;-43
2021/07/06 10:46:40;;;;;;;6.63;0.32;;;;;;;18.45;63.26;99097.53;5041990;28;20055;-43
2021/07/06 10:49:28;;;;;;;0.50;0.40;;;;;;;18.54;63.67;99101.31;5040516;28;20049;-45
2021/07/06 10:51:56;;;;;;;1.35;0.10;;;;;;;18.64;62.92;99096.66;5036911;28;20104;-48
2021/07/06 10:54:25;;;;;;;0.60;0.10;;;;;;;18.64;62.90;99103.03;5040033;28;20451;-43
2021/07/06 10:56:55;;;;;;;1.10;0.10;;;;;;;18.52;63.62;99102.97;5037385;28;20407;-44
2021/07/06 10:59:35;;;;;;;0.40;0.13;;;;;;;18.44;63.98;99099.53;5035497;28;20065;-47
2021/07/06 11:02:12;;;;;;;0.30;0.10;;;;;;;18.50;64.11;99111.84;5040245;28;20073;-44
2021/07/06 11:04:42;;;;;;;0.20;0.20;;;;;;;18.52;63.90;99112.19;5038533;28;20418;-47
2021/07/06 11:07:11;;;;;;;0.08;0.08;;;;;;;18.49;64.42;99107.44;5038455;28;20126;-48
2021/07/06 11:09:38;;;;;;;1.35;0.20;;;;;;;18.57;64.63;99105.25;5038902;28;20127;-46
2021/07/06 11:12:17;;;;;;;0.20;0.20;;;;;;;18.68;65.51;99112.16;5042651;28;20053;-45
2021/07/06 11:14:56;;;;;;;1.52;0.70;;;;;;;18.80;65.97;99119.84;5038992;28;20123;-43
2021/07/06 11:17:38;;;;;;;0.35;0.30;;;;;;;18.76;66.15;99118.38;5037237;28;20070;-48
2021/07/06 11:20:09;;;;;;;1.45;0.10;;;;;;;18.72;66.01;99118.47;5040978;28;20056;-46
2021/07/06 11:22:43;;;;;;;0.88;0.30;;;;;;;18.54;66.77;99129.34;5041575;28;20048;-51
2021/07/06 11:25:21;;;;;;;0.47;0.38;;;;;;;18.43;67.00;99120.38;5041819;28;20835;-48
2021/07/06 11:27:58;;;;;;;0.43;0.15;;;;;;;18.31;67.96;99126.66;5038240;28;20056;-47
2021/07/06 11:30:54;;;;;;;3.63;0.20;;;;;;;18.21;68.40;99133.31;5039844;28;20139;-45
2021/07/06 11:33:36;;;;;;;0.63;0.20;;;;;;;18.25;68.30;99123.59;5039955;28;20072;-51
2021/07/06 11:36:16;;;;;;;0.25;0.25;;;;;;;18.33;68.34;99135.41;5042734;28;20060;-46
2021/07/06 11:38:46;;;;;;;0.43;0.40;;;;;;;18.39;68.40;99125.28;5022899;28;20135;-43
2021/07/06 11:41:17;;;;;;;0.40;0.30;;;;;;;18.49;68.42;99121.47;5036771;28;20068;-49
2021/07/06 11:43:44;;;;;;;1.20;0.22;;;;;;;18.58;68.22;99127.25;5039886;28;20063;-52